createdAt,value
2019-04-14T05:28:50.679Z,40.73
2019-04-14T06:38:56.488Z,39.21
2019-04-14T06:48:45.291Z,39.18
2019-04-14T06:54:54.484Z,38.37
2019-04-14T06:57:23.619Z,38.18
2019-04-14T07:03:25.444Z,38.35
2019-04-14T07:06:00.924Z,39.17
2019-04-14T07:08:30.072Z,40.00
2019-04-14T07:11:04.613Z,40.14
2019-04-14T07:13:40.371Z,42.85
2019-04-14T07:16:16.747Z,40.79
2019-04-14T07:18:55.739Z,40.59
2019-04-14T07:21:38.802Z,40.19
2019-04-14T07:24:20.468Z,39.74
2019-04-14T07:26:51.507Z,39.13
2019-04-14T07:29:25.672Z,39.49
2019-04-14T07:32:26.830Z,38.80
2019-04-14T07:37:58.819Z,39.15
2019-04-14T07:40:36.661Z,38.56
2019-04-14T07:43:18.607Z,38.56
2019-04-14T07:45:50.323Z,38.26
2019-04-14T07:48:52.615Z,38.44
2019-04-14T07:51:30.871Z,37.99
2019-04-14T07:54:11.748Z,37.88
2019-04-14T07:57:06.597Z,38.29
2019-04-14T07:59:42.863Z,38.18
2019-04-14T08:02:22.384Z,37.89
2019-04-14T08:05:02.092Z,38.01
2019-04-14T08:07:40.721Z,37.72
2019-04-14T08:10:30.458Z,37.72
2019-04-14T08:13:06.452Z,37.84
2019-04-14T08:15:43.491Z,37.63
2019-04-14T08:18:18.180Z,37.51
2019-04-14T08:21:16.989Z,37.73
2019-04-14T08:23:52.764Z,37.16
2019-04-14T08:26:29.338Z,37.46
2019-04-14T08:29:11.922Z,37.50
2019-04-14T08:31:47.806Z,37.56
2019-04-14T08:34:34.989Z,37.42
2019-04-14T08:36:58.648Z,37.60
2019-04-14T08:39:37.553Z,37.48
2019-04-14T08:42:19.599Z,37.70
2019-04-14T08:47:50.283Z,37.78
2019-04-14T08:50:45.571Z,37.46
2019-04-14T08:53:34.946Z,37.55
2019-04-14T08:56:12.842Z,37.58
2019-04-14T08:58:48.721Z,37.46
2019-04-14T09:01:20.915Z,37.35
2019-04-14T09:04:05.297Z,37.41
2019-04-14T09:06:46.927Z,37.22
2019-04-14T09:09:19.498Z,37.11
2019-04-14T09:11:52.621Z,36.92
2019-04-14T09:14:22.381Z,36.49
2019-04-14T09:16:55.957Z,36.18
2019-04-14T09:19:30.041Z,35.77
2019-04-14T09:22:14.895Z,35.59
2019-04-14T09:24:50.640Z,35.59
2019-04-14T09:27:24.839Z,35.53
2019-04-14T09:29:54.566Z,35.45
2019-04-14T09:32:31.297Z,34.79
2019-04-14T09:35:07.290Z,34.61
2019-04-14T09:37:50.942Z,33.92
2019-04-14T09:40:29.194Z,33.07
2019-04-14T09:43:03.251Z,33.96
2019-04-14T09:45:36.047Z,33.99
2019-04-14T09:48:12.243Z,34.12
2019-04-14T09:51:03.925Z,34.00
2019-04-14T09:53:25.500Z,33.95
2019-04-14T09:56:36.974Z,34.56
2019-04-14T09:58:41.003Z,33.52
2019-04-14T10:01:19.475Z,32.45
2019-04-14T10:03:52.942Z,31.14
2019-04-14T10:06:28.765Z,32.40
2019-04-14T10:09:07.478Z,33.35
2019-04-14T10:21:00.760Z,35.81
2019-04-14T10:23:29.870Z,35.21
2019-04-14T10:25:58.992Z,35.02
2019-04-14T10:28:36.762Z,35.63
2019-04-14T10:31:09.254Z,34.42
2019-04-14T10:33:54.171Z,30.65
2019-04-14T10:36:27.195Z,32.01
2019-04-14T10:44:52.307Z,32.49
2019-04-14T10:47:27.257Z,31.84
2019-04-14T10:49:56.421Z,32.59
2019-04-14T10:52:30.365Z,32.18
2019-04-14T10:55:06.769Z,28.95
2019-04-14T10:57:36.223Z,29.13
2019-04-14T11:00:11.170Z,29.64
2019-04-14T11:02:40.281Z,30.06
2019-04-14T11:05:08.652Z,29.84
2019-04-14T11:07:38.185Z,29.92
2019-04-14T11:13:20.605Z,29.22
2019-04-14T11:15:55.861Z,28.76
2019-04-14T11:18:28.010Z,28.31
2019-04-14T11:21:01.421Z,28.39
2019-04-14T11:23:30.953Z,27.79
2019-04-14T11:26:05.975Z,27.71
2019-04-14T11:28:35.124Z,27.53
2019-04-14T11:31:04.492Z,27.46
2019-04-14T11:33:51.132Z,27.47
2019-04-14T11:36:38.422Z,26.92
2019-04-14T11:39:10.715Z,26.37
2019-04-14T11:41:39.799Z,26.05
2019-04-14T11:44:13.413Z,25.62
2019-04-14T11:46:42.587Z,25.64
2019-04-14T11:49:15.037Z,25.25
2019-04-14T11:51:54.667Z,25.95
2019-04-14T11:54:16.559Z,26.09
2019-04-14T11:56:45.736Z,26.07
2019-04-14T11:59:18.055Z,26.70
2019-04-14T12:01:51.883Z,26.77
2019-04-14T12:04:28.816Z,26.86
2019-04-14T12:07:02.049Z,27.87
2019-04-14T12:09:32.838Z,28.28
2019-04-14T12:44:38.789Z,32.86
2019-04-14T12:47:20.213Z,37.24
2019-04-14T12:50:01.228Z,35.63
2019-04-14T12:52:30.357Z,36.64
2019-04-14T14:02:11.299Z,34.45
2019-04-14T14:04:40.474Z,34.45
2019-04-14T14:07:09.593Z,33.62
2019-04-14T14:09:38.792Z,34.08
2019-04-14T14:12:09.543Z,33.90
2019-04-14T14:14:42.791Z,33.53
2019-04-14T14:17:19.481Z,34.23
2019-04-14T14:20:02.321Z,34.51
2019-04-14T14:28:53.056Z,36.82
2019-04-14T14:31:22.611Z,38.12
2019-04-14T14:33:51.742Z,36.34
2019-04-14T14:36:23.995Z,36.58
2019-04-14T14:38:53.114Z,36.67
2019-04-14T14:41:22.249Z,36.53
2019-04-14T14:43:51.397Z,36.69
2019-04-14T14:46:24.609Z,36.89
2019-04-14T14:49:04.374Z,37.02
2019-04-14T14:51:35.143Z,37.28
2019-04-14T14:54:04.273Z,37.40
2019-04-14T14:56:33.418Z,37.65
2019-04-14T14:59:02.657Z,37.65
2019-04-14T15:01:31.892Z,37.75
2019-04-14T15:07:36.333Z,38.08
2019-04-14T15:10:06.712Z,38.38
2019-04-14T15:12:35.857Z,38.58
2019-04-14T15:15:06.045Z,38.89
2019-04-14T15:17:35.164Z,39.34
2019-04-14T15:20:06.167Z,40.08
2019-04-14T15:22:35.333Z,37.88
2019-04-14T15:25:04.917Z,37.14
2019-04-14T15:27:33.321Z,38.47
2019-04-14T15:30:02.413Z,39.32
2019-04-14T15:32:31.552Z,40.28
2019-04-14T15:35:00.691Z,40.96
2019-04-14T15:37:29.837Z,41.33
2019-04-14T15:39:58.969Z,40.94
2019-04-14T15:42:28.084Z,40.96
2019-04-14T15:44:57.206Z,41.28
2019-04-14T15:47:26.427Z,41.62
2019-04-14T15:49:55.585Z,42.09
2019-04-14T15:52:24.728Z,42.49
2019-04-14T15:54:53.870Z,42.18
2019-04-14T15:57:30.401Z,42.94
2019-04-14T16:00:17.595Z,43.67
2019-04-14T16:03:18.206Z,44.00
2019-04-14T16:05:50.710Z,43.03
2019-04-14T16:08:37.799Z,42.64
2019-04-14T16:11:17.314Z,44.38
2019-04-14T16:13:50.516Z,43.87
2019-04-14T16:16:23.876Z,44.06
2019-04-14T16:18:54.703Z,44.26
2019-04-14T16:21:23.838Z,43.94
2019-04-14T16:23:52.967Z,44.35
2019-04-14T16:26:23.744Z,44.11
2019-04-14T16:28:57.199Z,43.67
2019-04-14T16:31:44.195Z,43.68
2019-04-14T16:34:20.733Z,43.29
2019-04-14T16:36:53.134Z,43.21
2019-04-14T16:39:22.298Z,43.02
2019-04-14T16:41:51.410Z,42.87
2019-04-14T16:47:05.410Z,42.60
2019-04-14T16:49:34.542Z,41.50
2019-04-14T16:52:05.389Z,39.60
2019-04-14T16:54:39.056Z,40.54
2019-04-14T16:57:29.181Z,40.71
2019-04-14T16:59:58.588Z,40.62
2019-04-14T17:02:52.230Z,40.69
2019-04-14T17:05:21.327Z,40.91
2019-04-14T17:07:53.389Z,42.17
2019-04-14T17:10:21.303Z,41.33
2019-04-14T17:12:50.494Z,41.21
2019-04-14T17:15:30.339Z,41.16
2019-04-14T17:18:07.219Z,41.07
2019-04-14T17:20:54.382Z,41.13
2019-04-14T17:23:36.345Z,40.96
2019-04-14T17:26:43.587Z,40.80
2019-04-14T17:29:22.618Z,40.68
2019-04-14T17:31:59.291Z,40.36
2019-04-14T17:34:36.151Z,40.14
2019-04-14T17:37:20.514Z,40.00
2019-04-14T17:39:59.844Z,39.92
2019-04-14T17:42:30.970Z,39.93
2019-04-14T17:45:17.229Z,39.83
2019-04-14T17:47:50.660Z,39.66
2019-04-14T17:50:46.558Z,39.66
2019-04-14T17:53:17.833Z,39.53
2019-04-14T17:55:55.021Z,39.67
2019-04-14T17:58:35.289Z,39.65
2019-04-14T18:01:39.161Z,39.59
2019-04-14T18:05:04.719Z,39.67
2019-04-14T18:07:34.848Z,39.93
2019-04-14T18:16:12.901Z,39.93
2019-04-14T18:21:47.227Z,39.55
2019-04-14T18:25:04.646Z,39.29
2019-04-14T18:30:24.233Z,39.40
2019-04-14T18:33:03.678Z,39.94
2019-04-14T18:35:33.711Z,38.60
2019-04-14T18:38:19.388Z,37.52
2019-04-14T19:09:01.643Z,40.25
2019-04-14T19:21:08.120Z,42.09
2019-04-14T19:34:02.187Z,42.92
2019-04-14T19:36:37.175Z,43.12
2019-04-14T19:39:10.146Z,43.15
2019-04-14T19:41:39.268Z,43.36
2019-04-14T19:44:09.918Z,43.45
2019-04-14T19:46:40.309Z,43.04
2019-04-14T19:49:10.247Z,42.94
2019-04-14T19:52:07.559Z,42.61
2019-04-14T19:54:36.666Z,42.67
2019-04-14T19:57:05.862Z,41.71
2019-04-14T19:59:34.995Z,42.42
2019-04-14T20:02:04.116Z,42.16
2019-04-14T20:04:33.269Z,41.32
2019-04-14T20:07:02.380Z,41.03
2019-04-14T20:09:31.493Z,40.99
2019-04-14T20:12:00.624Z,41.06
2019-04-14T20:14:29.737Z,40.89
2019-04-14T20:17:05.798Z,40.97
2019-04-14T20:19:41.467Z,40.96
2019-04-14T20:22:17.909Z,40.95
2019-04-14T20:25:04.847Z,40.98
2019-04-14T20:27:47.194Z,40.96
2019-04-14T20:30:20.650Z,40.94
2019-04-14T20:32:50.528Z,41.00
2019-04-14T20:35:19.638Z,41.16
2019-04-14T20:37:48.777Z,40.99
2019-04-14T20:40:17.892Z,40.92
2019-04-14T20:42:47.013Z,41.13
2019-04-14T20:45:16.479Z,40.78
2019-04-14T20:47:45.588Z,40.90
2019-04-14T20:50:14.761Z,40.82
2019-04-14T20:52:43.887Z,40.79
2019-04-14T20:55:12.987Z,41.07
2019-04-14T20:57:42.394Z,40.98
2019-04-14T21:00:12.491Z,40.84
2019-04-14T21:03:01.595Z,40.61
2019-04-14T21:05:38.457Z,40.95
2019-04-14T21:08:09.203Z,40.65
2019-04-14T21:10:48.595Z,40.78
2019-04-14T21:13:19.336Z,40.74
2019-04-14T21:15:50.078Z,40.90
2019-04-14T21:18:35.921Z,40.89
2019-04-14T21:21:06.667Z,41.10
2019-04-14T21:23:37.411Z,41.13
2019-04-14T21:26:08.185Z,41.05
2019-04-14T21:28:38.930Z,40.98
2019-04-14T21:31:15.686Z,41.15
2019-04-14T21:33:49.388Z,41.08
2019-04-14T21:36:26.035Z,41.20
2019-04-14T21:39:12.959Z,41.15
2019-04-14T21:41:43.732Z,41.09
2019-04-14T21:44:12.847Z,41.19
2019-04-14T21:46:41.961Z,40.93
2019-04-14T21:49:11.107Z,41.12
2019-04-14T21:51:47.341Z,41.42
2019-04-14T21:54:17.239Z,41.33
2019-04-14T21:56:48.062Z,41.23
2019-04-14T21:59:18.806Z,41.20
2019-04-14T22:02:05.810Z,41.21
2019-04-14T22:04:48.851Z,41.15
2019-04-14T22:07:19.700Z,41.08
2019-04-14T22:09:49.171Z,41.05
2019-04-14T22:12:17.554Z,41.10
2019-04-14T22:14:46.652Z,41.16
2019-04-14T22:17:15.760Z,41.34
2019-04-14T22:19:44.866Z,41.07
2019-04-14T22:22:14.022Z,41.30
2019-04-14T22:24:43.399Z,41.13
2019-04-14T22:27:12.577Z,41.37
2019-04-14T22:29:41.707Z,41.32
2019-04-14T22:32:10.804Z,41.37
2019-04-14T22:34:39.914Z,41.37
2019-04-14T22:37:09.046Z,41.34
2019-04-14T22:39:39.330Z,41.28
2019-04-14T22:42:08.679Z,41.53
2019-04-14T22:44:37.820Z,41.46
2019-04-14T22:47:06.939Z,41.52
2019-04-14T22:49:36.039Z,41.53
2019-04-14T22:52:05.575Z,41.74
2019-04-14T22:54:33.970Z,41.67
2019-04-14T22:57:03.496Z,41.82
2019-04-14T22:59:32.635Z,41.86
2019-04-14T23:02:03.389Z,41.97
2019-04-14T23:04:34.163Z,41.93
2019-04-14T23:07:16.942Z,41.98
2019-04-14T23:09:50.478Z,42.13
2019-04-14T23:12:21.244Z,42.03
2019-04-14T23:14:52.007Z,42.09
2019-04-14T23:17:28.377Z,42.18
2019-04-14T23:19:59.125Z,42.19
2019-04-14T23:22:29.876Z,42.21
2019-04-14T23:24:59.012Z,42.21
2019-04-14T23:27:28.117Z,42.29
2019-04-14T23:29:57.234Z,42.30
2019-04-14T23:32:26.374Z,42.34
2019-04-14T23:34:55.477Z,42.40
2019-04-14T23:37:24.589Z,42.40
2019-04-14T23:39:53.729Z,42.51
2019-04-14T23:42:22.836Z,42.50
2019-04-14T23:44:51.944Z,42.49
2019-04-14T23:49:59.879Z,42.76
2019-04-14T23:52:28.987Z,42.59
2019-04-14T23:54:58.092Z,42.54
2019-04-14T23:57:27.219Z,42.58
2019-04-14T23:59:56.330Z,42.56
